Time;durP1;ratioP1;P1;durP2;ratioP2;P2;SDS_P1;SDS_P2;PMS_P1;PMS_P2;Temp;Humidity;BMP_temperature;BMP_pressure;BME280_temperature;BME280_humidity;BME280_pressure;Samples;Min_cycle;Max_cycle;Signal;HPM_P1;HPM_P2
2023/08/21 00:02:00;;;;;;;2.97;0.40;;;25.80;80.60;;;;;;5093495;28;20036;-83
2023/08/21 00:04:26;;;;;;;1.83;0.43;;;25.80;80.70;;;;;;5094889;28;20036;-84
2023/08/21 00:06:52;;;;;;;1.30;0.30;;;25.70;80.70;;;;;;5092969;28;20056;-80
2023/08/21 00:09:17;;;;;;;2.60;0.30;;;25.70;80.80;;;;;;5094865;28;20032;-83
2023/08/21 00:11:43;;;;;;;2.85;0.30;;;25.70;80.80;;;;;;5093326;28;20066;-83
2023/08/21 00:14:09;;;;;;;1.55;0.40;;;25.70;80.90;;;;;;5095172;28;20528;-83
2023/08/21 00:16:34;;;;;;;3.40;0.50;;;25.70;80.90;;;;;;5094750;28;20028;-83
2023/08/21 00:19:00;;;;;;;2.42;0.50;;;25.70;81.00;;;;;;5093346;28;20032;-83
2023/08/21 00:21:25;;;;;;;2.33;0.50;;;25.70;81.10;;;;;;5093260;28;20036;-83
2023/08/21 00:23:51;;;;;;;1.15;0.20;;;25.70;81.20;;;;;;5093037;28;20028;-83
2023/08/21 00:26:17;;;;;;;1.70;0.30;;;25.70;81.30;;;;;;5094408;28;20036;-83
2023/08/21 00:28:43;;;;;;;2.72;0.52;;;25.60;81.40;;;;;;5093337;28;20020;-84
2023/08/21 00:31:09;;;;;;;2.03;0.30;;;25.70;81.50;;;;;;5094741;28;20491;-83
2023/08/21 00:33:34;;;;;;;2.20;0.30;;;25.60;81.60;;;;;;5094744;28;20030;-84
2023/08/21 00:36:00;;;;;;;2.47;0.40;;;25.60;81.70;;;;;;5094713;28;20035;-83
2023/08/21 00:38:26;;;;;;;2.40;0.32;;;25.60;81.80;;;;;;5093672;28;20036;-83
2023/08/21 00:40:52;;;;;;;3.60;0.63;;;25.60;82.00;;;;;;5094120;28;20067;-83
2023/08/21 00:43:18;;;;;;;2.47;0.40;;;25.60;82.10;;;;;;5093223;28;20028;-83
2023/08/21 00:45:46;;;;;;;1.80;0.32;;;25.60;82.10;;;;;;5093029;28;20490;-83
2023/08/21 00:48:12;;;;;;;2.47;0.40;;;25.60;82.20;;;;;;5093992;28;20039;-83
2023/08/21 00:50:39;;;;;;;1.90;0.40;;;25.60;82.20;;;;;;5093581;28;20028;-82
2023/08/21 00:53:06;;;;;;;1.98;0.30;;;25.60;82.20;;;;;;5075708;28;20039;-83
2023/08/21 00:55:32;;;;;;;1.27;0.30;;;25.60;82.20;;;;;;5092756;28;20105;-82
2023/08/21 00:57:58;;;;;;;2.03;0.30;;;25.60;82.30;;;;;;5094056;28;20059;-83
2023/08/21 01:00:25;;;;;;;1.27;0.20;;;25.60;82.30;;;;;;5092689;28;20028;-83
2023/08/21 01:02:50;;;;;;;1.50;0.35;;;25.60;82.40;;;;;;5093955;28;20059;-83
2023/08/21 01:05:19;;;;;;;2.00;0.35;;;25.60;82.50;;;;;;5093348;28;20024;-81
2023/08/21 01:07:53;;;;;;;2.10;0.40;;;25.60;82.60;;;;;;5088945;28;20071;-82
2023/08/21 01:10:56;;;;;;;3.78;0.40;;;25.60;82.70;;;;;;5092222;28;20047;-82
2023/08/21 01:14:08;;;;;;;1.95;0.50;;;25.50;82.80;;;;;;5059309;28;20426;-81
2023/08/21 01:16:33;;;;;;;2.50;0.40;;;25.50;82.70;;;;;;5030861;28;20063;-82
2023/08/21 01:19:01;;;;;;;2.70;0.43;;;25.50;82.70;;;;;;5031501;28;20113;-82
2023/08/21 01:21:27;;;;;;;2.28;0.30;;;25.50;82.80;;;;;;5064518;28;20040;-82
2023/08/21 01:23:52;;;;;;;3.65;0.73;;;25.40;82.80;;;;;;5093822;28;20028;-81
2023/08/21 01:26:18;;;;;;;1.45;0.22;;;25.40;82.90;;;;;;5093682;28;20062;-82
2023/08/21 01:28:44;;;;;;;3.40;0.40;;;25.40;83.00;;;;;;5092415;28;20036;-82
2023/08/21 01:31:14;;;;;;;1.83;0.45;;;25.40;83.00;;;;;;5093629;28;20036;-81
2023/08/21 01:33:47;;;;;;;3.30;0.40;;;25.40;83.20;;;;;;5093561;28;20028;-81
2023/08/21 01:36:14;;;;;;;1.70;0.40;;;25.30;83.20;;;;;;5093673;28;20024;-82
2023/08/21 01:38:40;;;;;;;3.40;0.40;;;25.40;83.40;;;;;;5092865;28;20028;-82
2023/08/21 01:41:06;;;;;;;2.72;0.45;;;25.30;83.40;;;;;;5092435;28;20032;-82
2023/08/21 01:43:31;;;;;;;1.40;0.40;;;25.30;83.60;;;;;;5093627;28;20081;-82
2023/08/21 01:45:57;;;;;;;1.70;0.30;;;25.30;83.60;;;;;;5093320;28;20074;-82
2023/08/21 01:48:23;;;;;;;1.77;0.20;;;25.30;83.70;;;;;;5093636;28;20423;-83
2023/08/21 01:50:49;;;;;;;2.25;0.22;;;25.30;83.80;;;;;;5093918;28;20024;-82
2023/08/21 01:53:14;;;;;;;1.50;0.20;;;25.30;84.00;;;;;;5093219;28;20058;-82
2023/08/21 01:55:40;;;;;;;3.45;0.40;;;25.30;84.00;;;;;;5093667;28;20032;-83
2023/08/21 01:58:05;;;;;;;2.67;0.40;;;25.20;83.90;;;;;;5093187;28;20056;-82
2023/08/21 02:00:31;;;;;;;1.13;0.28;;;25.20;84.10;;;;;;5093537;28;20060;-83
2023/08/21 02:02:57;;;;;;;3.00;0.40;;;25.20;84.20;;;;;;5092202;28;20067;-83
2023/08/21 02:05:22;;;;;;;2.85;0.50;;;25.20;84.20;;;;;;5092294;28;20028;-84
2023/08/21 02:07:48;;;;;;;2.47;0.30;;;25.10;84.10;;;;;;5092927;28;20044;-83
2023/08/21 02:10:14;;;;;;;3.15;0.30;;;25.10;84.20;;;;;;5093629;28;20032;-83
2023/08/21 02:12:39;;;;;;;2.58;0.50;;;25.10;84.30;;;;;;5075348;28;20036;-82
2023/08/21 02:15:05;;;;;;;2.13;0.40;;;25.10;84.40;;;;;;5093048;28;20028;-83
2023/08/21 02:17:32;;;;;;;1.38;0.30;;;25.00;84.30;;;;;;5092025;28;20036;-82
2023/08/21 02:19:58;;;;;;;2.25;0.35;;;25.00;84.30;;;;;;5092057;28;20124;-82
2023/08/21 02:22:23;;;;;;;3.33;0.43;;;25.00;84.30;;;;;;5095781;28;20451;-82
2023/08/21 02:24:49;;;;;;;1.63;0.30;;;25.00;84.20;;;;;;5097165;28;20020;-82
2023/08/21 02:27:14;;;;;;;2.30;0.90;;;25.00;84.30;;;;;;5096551;28;20361;-83
2023/08/21 02:29:40;;;;;;;2.38;0.38;;;25.00;84.20;;;;;;5096281;28;20036;-82
2023/08/21 02:32:06;;;;;;;3.22;0.52;;;25.00;84.30;;;;;;5096741;28;20036;-82
2023/08/21 02:34:31;;;;;;;4.07;0.40;;;25.00;84.40;;;;;;5095563;28;20118;-82
2023/08/21 02:36:58;;;;;;;2.65;0.50;;;25.00;84.30;;;;;;5095636;28;20040;-81
2023/08/21 02:39:23;;;;;;;2.03;0.30;;;25.00;84.30;;;;;;5094837;28;20032;-82
2023/08/21 02:41:49;;;;;;;1.60;0.30;;;25.00;84.20;;;;;;5096208;28;20036;-82
2023/08/21 02:44:15;;;;;;;2.10;0.38;;;25.00;84.30;;;;;;5095107;28;20021;-82
2023/08/21 02:46:41;;;;;;;1.65;0.40;;;25.00;84.40;;;;;;5096169;28;20161;-82
2023/08/21 02:49:06;;;;;;;2.25;0.40;;;25.00;84.40;;;;;;5095932;28;20058;-82
2023/08/21 02:51:32;;;;;;;2.63;0.40;;;25.00;84.40;;;;;;5095504;28;20032;-83
2023/08/21 02:53:57;;;;;;;2.53;0.40;;;25.00;84.40;;;;;;5095229;28;20111;-83
2023/08/21 02:56:23;;;;;;;2.90;0.30;;;25.00;84.50;;;;;;5096587;28;20081;-83
2023/08/21 02:58:49;;;;;;;3.55;0.40;;;25.00;84.50;;;;;;5095103;28;20103;-82
2023/08/21 03:01:14;;;;;;;2.25;0.50;;;25.00;84.40;;;;;;5095901;28;20396;-83
2023/08/21 03:03:40;;;;;;;1.48;0.30;;;25.00;84.40;;;;;;5078103;28;20472;-82
2023/08/21 03:06:05;;;;;;;3.33;0.45;;;25.00;84.50;;;;;;5096366;28;20028;-82
2023/08/21 03:08:31;;;;;;;2.38;0.40;;;24.90;84.40;;;;;;5094071;28;20052;-82
2023/08/21 03:10:57;;;;;;;2.25;0.65;;;24.90;84.50;;;;;;5094841;28;20024;-82
2023/08/21 03:13:22;;;;;;;4.18;0.40;;;24.90;84.60;;;;;;5096012;28;20457;-82
2023/08/21 03:15:48;;;;;;;1.92;0.28;;;24.90;84.50;;;;;;5094694;28;20031;-82
2023/08/21 03:18:14;;;;;;;1.27;0.20;;;24.90;84.40;;;;;;5094471;28;20387;-83
2023/08/21 03:20:45;;;;;;;1.45;0.30;;;24.90;84.50;;;;;;5095777;28;20484;-82
2023/08/21 03:23:11;;;;;;;1.85;0.30;;;24.80;84.60;;;;;;5096095;28;20028;-82
2023/08/21 03:25:36;;;;;;;1.08;0.30;;;24.90;84.80;;;;;;5094950;28;20032;-83
2023/08/21 03:28:02;;;;;;;0.88;0.20;;;24.90;84.80;;;;;;5095919;28;20072;-82
2023/08/21 03:30:28;;;;;;;1.40;0.40;;;24.90;84.80;;;;;;5094940;28;20034;-83
2023/08/21 03:32:54;;;;;;;2.03;0.20;;;24.90;84.80;;;;;;5093997;28;20039;-81
2023/08/21 03:35:19;;;;;;;2.60;0.43;;;24.90;84.80;;;;;;5094230;28;20028;-81
2023/08/21 03:37:45;;;;;;;1.20;0.45;;;24.90;84.70;;;;;;5092653;28;20032;-82
2023/08/21 03:40:11;;;;;;;2.10;0.30;;;24.90;84.60;;;;;;5094547;28;20059;-82
2023/08/21 03:42:36;;;;;;;1.38;0.28;;;24.90;84.60;;;;;;5094720;28;20094;-82
2023/08/21 03:45:04;;;;;;;2.97;0.30;;;24.90;85.00;;;;;;5094296;28;20119;-82
2023/08/21 03:47:30;;;;;;;2.22;0.30;;;24.90;85.00;;;;;;5095329;28;20029;-83
2023/08/21 03:49:56;;;;;;;1.05;0.20;;;24.90;85.10;;;;;;5095446;28;20032;-83
2023/08/21 03:52:22;;;;;;;1.60;0.20;;;24.90;85.10;;;;;;5095272;28;20036;-83
2023/08/21 03:54:47;;;;;;;3.55;0.35;;;24.80;85.10;;;;;;5095312;28;20074;-83
2023/08/21 03:57:13;;;;;;;2.17;0.40;;;24.90;85.00;;;;;;5077098;28;20132;-83
2023/08/21 03:59:38;;;;;;;4.05;0.50;;;24.80;84.80;;;;;;5093965;28;20032;-83
2023/08/21 04:02:04;;;;;;;3.45;0.60;;;24.80;84.60;;;;;;5093690;28;20169;-82
2023/08/21 04:04:30;;;;;;;1.05;0.20;;;24.60;83.90;;;;;;5095437;28;20032;-82
2023/08/21 04:06:55;;;;;;;2.20;0.40;;;24.50;83.70;;;;;;5094681;28;20028;-82
2023/08/21 04:09:21;;;;;;;1.92;0.50;;;24.40;84.80;;;;;;5094631;28;20122;-82
2023/08/21 04:11:47;;;;;;;1.67;0.35;;;24.40;85.30;;;;;;5094894;28;20024;-83
2023/08/21 04:14:12;;;;;;;2.22;0.47;;;24.40;85.50;;;;;;5093899;28;20028;-82
2023/08/21 04:16:38;;;;;;;1.60;0.20;;;24.40;85.70;;;;;;5075799;28;20036;-79
2023/08/21 04:19:05;;;;;;;2.20;0.30;;;24.40;85.90;;;;;;5091990;28;20024;-82
2023/08/21 04:21:30;;;;;;;2.60;0.40;;;24.50;85.90;;;;;;5093925;28;20067;-83
2023/08/21 04:23:56;;;;;;;2.50;0.52;;;24.50;85.70;;;;;;5075982;28;20499;-81
2023/08/21 04:26:22;;;;;;;3.70;0.40;;;24.40;85.70;;;;;;5092498;28;20499;-83
2023/08/21 04:28:47;;;;;;;2.70;0.30;;;24.40;85.80;;;;;;5092911;28;20052;-80
2023/08/21 04:31:13;;;;;;;2.97;0.30;;;24.40;85.70;;;;;;5092795;28;20028;-82
2023/08/21 04:33:39;;;;;;;1.92;0.30;;;24.50;85.90;;;;;;5093173;28;20387;-83
2023/08/21 04:36:05;;;;;;;2.85;0.30;;;24.50;85.80;;;;;;5094028;28;20099;-83
2023/08/21 04:38:30;;;;;;;2.03;0.38;;;24.50;85.70;;;;;;5092251;28;20116;-83
2023/08/21 04:40:56;;;;;;;4.80;0.95;;;24.50;85.60;;;;;;5094544;28;20028;-83
2023/08/21 04:43:22;;;;;;;1.90;0.45;;;24.50;85.50;;;;;;5092552;28;20057;-83
2023/08/21 04:45:55;;;;;;;3.38;0.30;;;24.50;85.30;;;;;;5094205;28;20540;-83
2023/08/21 04:48:21;;;;;;;3.45;0.40;;;24.60;85.10;;;;;;5092624;28;20035;-84
2023/08/21 04:50:47;;;;;;;2.20;0.50;;;24.50;84.80;;;;;;5094576;28;20416;-83
2023/08/21 04:53:13;;;;;;;2.33;0.40;;;24.50;85.00;;;;;;5093399;28;20526;-83
2023/08/21 04:55:40;;;;;;;2.13;0.30;;;24.50;85.10;;;;;;5093227;28;20478;-83
2023/08/21 04:58:06;;;;;;;2.20;0.20;;;24.50;85.30;;;;;;5093673;28;20024;-84
2023/08/21 05:00:32;;;;;;;3.00;0.52;;;24.50;85.40;;;;;;5076070;28;20036;-83
2023/08/21 05:02:59;;;;;;;5.03;0.40;;;24.60;85.50;;;;;;5093849;28;20090;-81
2023/08/21 05:05:25;;;;;;;5.35;0.85;;;24.60;85.50;;;;;;5093627;28;20036;-83
2023/08/21 05:07:52;;;;;;;2.22;0.32;;;24.50;84.90;;;;;;5092223;28;20047;-84
2023/08/21 05:10:18;;;;;;;4.30;0.60;;;24.50;85.10;;;;;;5093411;28;20043;-85
2023/08/21 05:12:43;;;;;;;2.28;0.35;;;24.50;85.30;;;;;;5093166;28;20380;-83
2023/08/21 05:15:09;;;;;;;1.55;0.40;;;24.50;85.50;;;;;;5093415;28;20027;-84
2023/08/21 05:17:35;;;;;;;2.30;0.52;;;24.50;85.60;;;;;;5092055;28;20051;-84
2023/08/21 05:20:00;;;;;;;2.83;0.50;;;24.50;85.60;;;;;;5092823;28;20031;-84
2023/08/21 05:22:26;;;;;;;2.95;0.52;;;24.50;85.40;;;;;;5093303;28;20396;-86
2023/08/21 05:24:52;;;;;;;5.43;0.77;;;24.40;85.10;;;;;;5092500;28;20461;-84
2023/08/21 05:27:17;;;;;;;2.03;0.40;;;24.30;84.40;;;;;;5093728;28;20461;-84
2023/08/21 05:29:43;;;;;;;2.30;0.40;;;24.30;85.10;;;;;;5093721;28;20396;-84
2023/08/21 05:32:09;;;;;;;3.30;0.52;;;24.20;85.20;;;;;;5093249;28;20032;-85
2023/08/21 05:34:34;;;;;;;3.75;0.60;;;24.30;85.40;;;;;;5093176;28;20057;-85
2023/08/21 05:37:00;;;;;;;6.05;0.82;;;24.30;85.40;;;;;;5093077;28;20047;-83
2023/08/21 05:39:25;;;;;;;4.35;0.60;;;24.30;85.50;;;;;;5091240;28;20377;-84
2023/08/21 05:41:52;;;;;;;3.33;0.55;;;24.40;85.70;;;;;;5091382;28;20036;-84
2023/08/21 05:44:18;;;;;;;1.92;0.38;;;24.40;86.00;;;;;;5092959;28;20016;-86
2023/08/21 05:46:43;;;;;;;4.57;0.50;;;24.40;86.10;;;;;;5092916;28;20522;-85
2023/08/21 05:49:09;;;;;;;2.97;0.50;;;24.50;86.10;;;;;;5092730;28;20016;-85
2023/08/21 05:51:35;;;;;;;3.42;0.63;;;24.50;86.10;;;;;;5093687;28;20036;-83
2023/08/21 05:54:00;;;;;;;3.53;0.40;;;24.50;86.00;;;;;;5094792;28;20372;-85
2023/08/21 05:56:26;;;;;;;5.63;0.93;;;24.40;85.90;;;;;;5096102;28;20031;-85
2023/08/21 05:58:51;;;;;;;3.10;0.65;;;24.40;85.60;;;;;;5097167;28;20074;-84
2023/08/21 06:01:17;;;;;;;5.97;0.70;;;24.30;85.30;;;;;;5096327;28;20059;-84
2023/08/21 06:03:43;;;;;;;2.88;0.47;;;24.20;85.90;;;;;;5096334;28;20499;-87
2023/08/21 06:06:14;;;;;;;2.28;0.63;;;24.20;86.00;;;;;;5097360;28;20059;-84
2023/08/21 06:08:39;;;;;;;2.70;0.60;;;24.20;86.20;;;;;;5095460;28;20098;-85
2023/08/21 06:11:05;;;;;;;4.25;0.93;;;24.20;86.50;;;;;;5096785;28;20059;-84
2023/08/21 06:13:30;;;;;;;2.90;0.40;;;24.20;86.40;;;;;;5097142;28;20039;-85
2023/08/21 06:15:56;;;;;;;2.72;0.40;;;24.20;86.80;;;;;;5097160;28;20479;-84
2023/08/21 06:18:22;;;;;;;5.00;1.30;;;24.30;86.50;;;;;;5097181;28;20028;-85
2023/08/21 06:20:53;;;;;;;4.70;0.50;;;24.40;85.90;;;;;;5097187;28;20479;-84
2023/08/21 06:23:19;;;;;;;3.92;1.00;;;24.30;85.70;;;;;;5097038;28;20070;-84
2023/08/21 06:25:45;;;;;;;4.53;0.95;;;24.30;86.10;;;;;;5096660;28;20035;-85
2023/08/21 06:28:10;;;;;;;2.30;0.50;;;24.40;85.60;;;;;;5096826;28;20445;-84
2023/08/21 06:30:36;;;;;;;5.10;0.40;;;24.40;85.60;;;;;;5096583;28;20034;-84
2023/08/21 06:33:02;;;;;;;3.38;0.50;;;24.40;85.80;;;;;;5096674;28;20032;-84
2023/08/21 06:35:27;;;;;;;2.08;0.35;;;24.40;86.00;;;;;;5096795;28;20097;-84
2023/08/21 06:37:54;;;;;;;1.83;0.30;;;24.50;85.90;;;;;;5094976;28;20054;-85
2023/08/21 06:40:20;;;;;;;2.30;0.40;;;24.60;85.90;;;;;;5096951;28;20036;-85
2023/08/21 06:42:45;;;;;;;2.45;0.30;;;24.60;85.60;;;;;;5096665;28;20089;-86
2023/08/21 06:45:11;;;;;;;1.98;0.20;;;24.70;85.70;;;;;;5096557;28;20028;-86
2023/08/21 06:47:36;;;;;;;2.47;0.63;;;24.80;85.70;;;;;;5096890;28;20035;-85
2023/08/21 06:50:02;;;;;;;3.40;0.60;;;24.80;85.70;;;;;;5078543;28;20511;-85
2023/08/21 06:52:28;;;;;;;4.07;0.75;;;24.80;85.60;;;;;;5096344;28;20518;-85
2023/08/21 06:54:54;;;;;;;5.50;0.90;;;24.80;85.20;;;;;;5096572;28;20034;-86
2023/08/21 06:57:19;;;;;;;8.38;0.88;;;24.90;85.40;;;;;;5096673;28;20032;-85
2023/08/21 06:59:45;;;;;;;7.47;1.30;;;24.80;83.60;;;;;;5096664;28;20060;-85
2023/08/21 07:02:10;;;;;;;5.82;1.20;;;24.50;84.00;;;;;;5096445;28;20040;-85
2023/08/21 07:04:36;;;;;;;5.05;1.00;;;24.50;84.50;;;;;;5097090;28;20449;-86
2023/08/21 07:07:02;;;;;;;7.97;1.38;;;24.40;84.40;;;;;;5095318;28;20051;-85
2023/08/21 07:09:28;;;;;;;7.30;0.73;;;24.20;84.90;;;;;;5094037;28;20108;-85
2023/08/21 07:11:53;;;;;;;5.03;0.93;;;24.30;86.10;;;;;;5096386;28;20036;-85
2023/08/21 07:14:19;;;;;;;4.63;0.65;;;24.30;87.00;;;;;;5096072;28;20028;-85
2023/08/21 07:16:45;;;;;;;5.53;0.70;;;24.30;86.70;;;;;;5077878;28;20111;-85
2023/08/21 07:19:11;;;;;;;4.88;0.95;;;24.40;85.50;;;;;;5096207;28;20070;-85
2023/08/21 07:21:38;;;;;;;5.88;0.90;;;24.30;85.30;;;;;;5096065;28;20032;-85
2023/08/21 07:24:04;;;;;;;4.13;0.77;;;24.20;84.90;;;;;;5095089;28;20384;-85
2023/08/21 07:26:30;;;;;;;4.40;0.55;;;24.30;84.90;;;;;;5095987;28;20193;-87
2023/08/21 07:28:56;;;;;;;3.90;0.80;;;24.30;85.30;;;;;;5095844;28;20035;-85
2023/08/21 07:31:23;;;;;;;4.25;0.73;;;24.50;85.20;;;;;;5095658;28;20107;-85
2023/08/21 07:33:48;;;;;;;3.63;0.63;;;24.60;85.10;;;;;;5095501;28;20168;-85
2023/08/21 07:36:17;;;;;;;5.22;0.68;;;24.60;85.00;;;;;;5095393;28;20477;-84
2023/08/21 07:38:43;;;;;;;6.30;0.95;;;24.80;84.50;;;;;;5077901;28;20024;-86
2023/08/21 07:41:11;;;;;;;9.35;1.20;;;25.10;83.50;;;;;;5095343;28;20028;-85
2023/08/21 07:43:38;;;;;;;4.15;0.70;;;25.20;83.00;;;;;;5095398;28;20447;-85
2023/08/21 07:46:05;;;;;;;3.28;0.43;;;25.20;82.80;;;;;;5095515;28;20020;-84
2023/08/21 07:48:31;;;;;;;3.42;0.50;;;25.30;82.70;;;;;;5095418;28;20089;-85
2023/08/21 07:50:56;;;;;;;1.23;0.30;;;25.20;82.10;;;;;;5096113;28;20020;-86
2023/08/21 07:53:23;;;;;;;6.20;0.57;;;25.20;82.50;;;;;;5095243;28;20365;-85
2023/08/21 07:55:49;;;;;;;2.20;0.30;;;25.20;82.90;;;;;;5095196;28;20511;-84
2023/08/21 07:58:14;;;;;;;1.73;0.40;;;25.20;83.30;;;;;;5093959;28;20059;-85
2023/08/21 08:00:42;;;;;;;2.65;0.40;;;25.20;83.70;;;;;;5094758;28;20060;-85
2023/08/21 08:03:08;;;;;;;4.28;0.52;;;25.30;83.90;;;;;;5095005;28;20127;-85
2023/08/21 08:05:34;;;;;;;3.88;0.52;;;25.30;82.90;;;;;;5095238;28;20044;-85
2023/08/21 08:08:00;;;;;;;6.32;1.08;;;25.20;82.90;;;;;;5094380;28;20210;-84
2023/08/21 08:10:26;;;;;;;4.57;0.60;;;25.30;82.20;;;;;;5094878;28;20484;-85
2023/08/21 08:12:53;;;;;;;4.88;0.50;;;25.20;82.10;;;;;;5093839;28;20089;-85
2023/08/21 08:15:19;;;;;;;2.05;0.30;;;25.20;81.80;;;;;;5095301;28;20115;-85
2023/08/21 08:17:47;;;;;;;3.15;0.50;;;25.30;82.30;;;;;;5093715;28;20481;-85
2023/08/21 08:20:13;;;;;;;3.72;0.30;;;25.30;82.40;;;;;;5094691;28;20483;-84
2023/08/21 08:22:42;;;;;;;3.92;0.60;;;25.40;82.00;;;;;;5076740;28;20115;-85
2023/08/21 08:25:08;;;;;;;1.75;0.30;;;25.40;81.80;;;;;;5094784;28;20028;-85
2023/08/21 08:27:34;;;;;;;5.50;0.50;;;25.40;81.90;;;;;;5094985;28;20342;-84
2023/08/21 08:30:00;;;;;;;2.88;0.30;;;25.40;82.10;;;;;;5094272;28;20035;-84
2023/08/21 08:32:26;;;;;;;2.60;0.50;;;25.30;82.00;;;;;;5093318;28;20040;-84
2023/08/21 08:34:52;;;;;;;4.63;0.57;;;25.40;81.40;;;;;;5094660;28;20068;-85
2023/08/21 08:37:18;;;;;;;3.38;0.40;;;25.40;81.90;;;;;;5094597;28;20059;-86
2023/08/21 08:39:46;;;;;;;5.90;0.57;;;25.40;82.10;;;;;;5093958;28;20063;-85
2023/08/21 08:42:12;;;;;;;4.78;0.50;;;25.40;81.90;;;;;;5094332;28;20063;-86
2023/08/21 08:44:38;;;;;;;4.45;0.70;;;25.40;81.20;;;;;;5094187;28;20028;-85
2023/08/21 08:47:04;;;;;;;5.22;1.17;;;25.50;81.10;;;;;;5092876;28;20034;-85
2023/08/21 08:49:31;;;;;;;5.03;0.60;;;25.50;82.00;;;;;;5092802;28;20019;-85
2023/08/21 08:51:58;;;;;;;3.10;0.55;;;25.50;81.90;;;;;;5093992;28;20033;-85
2023/08/21 08:54:27;;;;;;;3.75;0.75;;;25.50;81.70;;;;;;5093987;28;20441;-85
2023/08/21 08:56:53;;;;;;;3.47;0.52;;;25.60;82.20;;;;;;5094025;28;20069;-85
2023/08/21 08:59:19;;;;;;;2.35;0.50;;;25.80;82.60;;;;;;5094271;28;20028;-86
2023/08/21 09:01:45;;;;;;;3.42;0.47;;;25.90;81.20;;;;;;5094003;28;20043;-85
2023/08/21 09:04:11;;;;;;;3.88;0.57;;;26.10;80.10;;;;;;5094094;28;20051;-85
2023/08/21 09:06:37;;;;;;;4.72;0.85;;;26.20;79.60;;;;;;5094159;28;20380;-85
2023/08/21 09:09:04;;;;;;;2.85;0.50;;;26.30;80.10;;;;;;5093720;28;20044;-86
2023/08/21 09:11:32;;;;;;;2.63;0.50;;;26.20;79.70;;;;;;5093874;28;20035;-85
2023/08/21 09:13:58;;;;;;;3.42;0.65;;;26.20;80.80;;;;;;5093787;28;20103;-85
2023/08/21 09:16:25;;;;;;;3.22;0.77;;;26.20;81.50;;;;;;5092698;28;20115;-85
2023/08/21 09:18:56;;;;;;;4.68;1.00;;;26.10;81.30;;;;;;5093766;28;20040;-84
2023/08/21 09:21:27;;;;;;;6.15;0.68;;;26.20;81.10;;;;;;5093846;28;20020;-83
2023/08/21 09:24:02;;;;;;;4.90;0.90;;;26.30;80.30;;;;;;5093509;28;20476;-85
2023/08/21 09:26:32;;;;;;;7.63;0.75;;;26.40;80.10;;;;;;5093985;28;20051;-84
2023/08/21 09:28:59;;;;;;;4.15;0.80;;;26.50;78.90;;;;;;5093830;28;20127;-84
2023/08/21 09:31:32;;;;;;;4.40;0.60;;;26.40;78.40;;;;;;5097923;28;20039;-85
2023/08/21 09:34:06;;;;;;;3.83;0.60;;;26.40;78.70;;;;;;5098050;28;20040;-85
2023/08/21 09:36:33;;;;;;;6.97;0.63;;;26.40;79.50;;;;;;5098171;28;20487;-84
2023/08/21 09:38:58;;;;;;;4.32;0.50;;;26.50;79.80;;;;;;5097554;28;20032;-84
2023/08/21 09:41:25;;;;;;;6.68;0.77;;;26.70;80.00;;;;;;5097706;28;20039;-85
2023/08/21 09:43:51;;;;;;;4.00;0.63;;;26.80;79.70;;;;;;5079808;28;20556;-85
2023/08/21 09:46:27;;;;;;;4.88;0.90;;;26.90;78.50;;;;;;5097583;28;20111;-84
2023/08/21 09:48:54;;;;;;;4.72;0.50;;;27.00;76.80;;;;;;5097857;28;20028;-85
2023/08/21 09:51:20;;;;;;;5.65;0.55;;;27.00;76.90;;;;;;5097852;28;20120;-85
2023/08/21 09:53:53;;;;;;;4.35;0.65;;;27.00;76.10;;;;;;5097274;28;20039;-85
2023/08/21 09:56:19;;;;;;;;;;;27.00;76.50;;;;;;5098204;28;20028;-83
2023/08/21 09:58:49;;;;;;;4.15;0.90;;;27.10;76.40;;;;;;5113058;28;19908;-83
2023/08/21 10:01:17;;;;;;;4.45;0.65;;;27.10;76.90;;;;;;5097075;28;20032;-85
2023/08/21 10:03:47;;;;;;;5.13;0.77;;;27.20;77.60;;;;;;5097026;28;20060;-84
2023/08/21 10:06:18;;;;;;;8.07;0.50;;;27.20;77.80;;;;;;5095853;28;20039;-85
2023/08/21 10:08:46;;;;;;;5.82;0.50;;;27.30;77.20;;;;;;5096382;28;20055;-84
2023/08/21 10:11:12;;;;;;;4.30;0.73;;;27.30;76.70;;;;;;5096743;28;20032;-85
2023/08/21 10:13:38;;;;;;;4.50;0.50;;;27.40;76.30;;;;;;5097380;28;20036;-86
2023/08/21 10:16:05;;;;;;;3.92;0.60;;;27.50;74.50;;;;;;5097274;28;20035;-84
2023/08/21 10:18:35;;;;;;;4.63;0.77;;;27.50;74.10;;;;;;5096777;28;20028;-85
2023/08/21 10:21:18;;;;;;;4.05;0.55;;;27.60;74.30;;;;;;5097368;28;20024;-86
2023/08/21 10:23:51;;;;;;;4.40;0.80;;;27.70;74.00;;;;;;5097264;28;20036;-85
2023/08/21 10:26:21;;;;;;;4.32;0.70;;;27.80;73.00;;;;;;5096901;28;20103;-84
2023/08/21 10:28:55;;;;;;;3.58;0.60;;;27.90;73.40;;;;;;5096816;28;20121;-85
2023/08/21 10:31:38;;;;;;;5.07;0.60;;;28.00;72.50;;;;;;5096003;28;20078;-85
2023/08/21 10:34:11;;;;;;;4.78;0.50;;;28.00;71.10;;;;;;5096612;28;20025;-84
2023/08/21 10:36:39;;;;;;;4.55;0.50;;;28.10;71.40;;;;;;5096386;28;20078;-85
2023/08/21 10:39:16;;;;;;;3.38;0.50;;;28.20;71.70;;;;;;5096189;28;20165;-83
2023/08/21 10:42:03;;;;;;;3.60;0.50;;;28.30;71.30;;;;;;5094191;28;20041;-84
2023/08/21 10:44:51;;;;;;;3.22;0.60;;;28.30;70.30;;;;;;5096435;28;20111;-88
2023/08/21 10:47:21;;;;;;;2.42;0.50;;;28.30;68.10;;;;;;5096801;28;20485;-84
2023/08/21 10:49:54;;;;;;;2.95;0.50;;;28.20;68.10;;;;;;5097281;28;20032;-84
2023/08/21 10:52:26;;;;;;;4.38;0.50;;;28.10;68.20;;;;;;5097548;28;20035;-85
2023/08/21 10:54:54;;;;;;;3.90;0.63;;;28.10;68.30;;;;;;5096964;28;20024;-85
2023/08/21 10:57:20;;;;;;;6.20;0.80;;;28.20;68.80;;;;;;5099531;28;20111;-84
2023/08/21 11:00:00;;;;;;;4.70;0.80;;;28.20;69.30;;;;;;5096891;28;20358;-84
2023/08/21 11:02:29;;;;;;;6.72;0.68;;;28.30;69.70;;;;;;5096326;28;20064;-84
2023/08/21 11:04:54;;;;;;;4.20;0.73;;;28.50;70.10;;;;;;5096196;28;20032;-83
2023/08/21 11:07:21;;;;;;;5.53;1.05;;;28.60;71.10;;;;;;5094574;28;20036;-83
2023/08/21 11:09:47;;;;;;;4.72;0.70;;;28.80;70.40;;;;;;5094163;28;20378;-85
2023/08/21 11:12:16;;;;;;;4.00;0.55;;;28.80;70.10;;;;;;5095986;28;20032;-83
2023/08/21 11:14:42;;;;;;;4.97;0.85;;;28.90;71.00;;;;;;5095561;28;20388;-83
2023/08/21 11:17:09;;;;;;;3.50;0.55;;;29.00;70.30;;;;;;5095882;28;20077;-84
2023/08/21 11:19:36;;;;;;;4.05;0.60;;;29.00;69.30;;;;;;5094459;28;20028;-85
2023/08/21 11:22:06;;;;;;;6.15;0.77;;;29.00;68.20;;;;;;5095421;28;20043;-84
2023/08/21 11:24:37;;;;;;;2.83;0.47;;;29.00;68.50;;;;;;5095671;28;20024;-84
2023/08/21 11:27:04;;;;;;;5.78;0.80;;;29.10;68.70;;;;;;5096090;28;20024;-83
2023/08/21 11:29:37;;;;;;;5.75;0.70;;;29.20;68.10;;;;;;5095896;28;20089;-84
2023/08/21 11:32:07;;;;;;;3.53;0.60;;;29.20;67.90;;;;;;5096236;28;20024;-84
2023/08/21 11:34:32;;;;;;;4.32;0.55;;;29.30;67.90;;;;;;5094549;28;20357;-85
2023/08/21 11:36:58;;;;;;;4.72;0.68;;;29.40;68.00;;;;;;5094161;28;20076;-85
2023/08/21 11:39:29;;;;;;;2.63;0.40;;;29.40;67.10;;;;;;5094771;28;20028;-86
2023/08/21 11:41:56;;;;;;;5.38;0.80;;;29.40;66.60;;;;;;5094387;28;20071;-84
2023/08/21 11:44:22;;;;;;;5.47;0.70;;;29.50;66.90;;;;;;5094198;28;20031;-88
2023/08/21 11:46:51;;;;;;;5.25;0.63;;;29.50;66.50;;;;;;5095396;28;20028;-85
2023/08/21 11:49:18;;;;;;;3.45;0.50;;;29.50;67.10;;;;;;5095288;28;20042;-85
2023/08/21 11:51:46;;;;;;;4.35;0.55;;;29.50;67.30;;;;;;5095146;28;20056;-85
2023/08/21 11:54:11;;;;;;;3.47;0.40;;;29.60;66.20;;;;;;5094158;28;20036;-85
2023/08/21 11:56:39;;;;;;;3.10;0.50;;;29.60;65.60;;;;;;5094746;28;20082;-82
2023/08/21 11:59:05;;;;;;;5.78;1.08;;;29.60;65.00;;;;;;5095084;28;20032;-84
2023/08/21 12:01:33;;;;;;;5.93;0.73;;;29.70;64.90;;;;;;5094998;28;20043;-83
2023/08/21 12:03:59;;;;;;;3.28;0.32;;;29.80;65.90;;;;;;5094919;28;20372;-84
2023/08/21 12:06:26;;;;;;;3.97;0.57;;;29.80;64.80;;;;;;5094920;28;20116;-84
2023/08/21 12:08:52;;;;;;;3.55;0.40;;;29.90;64.20;;;;;;5094306;28;20082;-84
2023/08/21 12:11:18;;;;;;;3.78;0.55;;;29.90;63.80;;;;;;5093177;28;20031;-86
2023/08/21 12:13:43;;;;;;;2.33;0.30;;;29.90;63.70;;;;;;5094718;28;20028;-83
2023/08/21 12:16:09;;;;;;;5.25;0.70;;;30.00;64.40;;;;;;5094718;28;20073;-84
2023/08/21 12:18:35;;;;;;;5.63;1.10;;;30.00;62.70;;;;;;5094754;28;20047;-85
2023/08/21 12:21:00;;;;;;;4.15;0.52;;;29.90;62.40;;;;;;5094501;28;20536;-84
2023/08/21 12:23:26;;;;;;;6.65;0.52;;;29.90;62.80;;;;;;5094793;28;20036;-85
2023/08/21 12:25:52;;;;;;;3.13;0.52;;;30.00;63.10;;;;;;5094902;28;20380;-84
2023/08/21 12:28:17;;;;;;;4.97;0.40;;;30.00;63.50;;;;;;5093680;28;20376;-84
2023/08/21 12:30:43;;;;;;;2.47;0.43;;;30.20;63.80;;;;;;5093182;28;20042;-86
2023/08/21 12:33:08;;;;;;;2.72;0.55;;;30.30;64.30;;;;;;5094716;28;20039;-82
2023/08/21 12:35:34;;;;;;;5.80;0.50;;;30.30;63.30;;;;;;5094120;28;20081;-85
2023/08/21 12:38:05;;;;;;;6.43;0.70;;;30.30;61.80;;;;;;5093936;28;20423;-85
2023/08/21 12:40:31;;;;;;;5.43;0.73;;;30.20;62.00;;;;;;5093330;28;20373;-84
2023/08/21 12:42:57;;;;;;;3.58;0.40;;;30.20;61.70;;;;;;5092984;28;20063;-84
2023/08/21 12:45:22;;;;;;;2.78;0.30;;;30.20;61.60;;;;;;5092797;28;20059;-85
2023/08/21 12:47:48;;;;;;;2.72;0.40;;;30.20;61.00;;;;;;5093873;28;20430;-84